Philadelphia International Airport
KPHL : rendu visible

Aérodrome :











RETROUVEZ-NOUS SUR...

 
LOGIN :

S'inscrire | Disclaimer

   EN    FR    IT 

 









Légende :    VFR   VFR Marginal   IFR   IFR Intensif   IFR Très Intensif
Visi : 
Plafond : 
>= 8 km
>= 3000ft
5 à 8 km
1000 à 3000 ft
1500m à 5 km
500 à 1000 ft
800 à 1500m
200 à 500 ft
< 800m
< 200 ft
Symboles :   Orages  Brouillard  Fortes neiges  Fortes précipitations  Vent > 20 kt






- Altitude de l'aérodrome : 36 ft
- Code IATA : PHL


KPHL - Philadelphia International

DERNIER METAR :
  • 250454Z 14004KT 10SM BKN090 OVC130 06/M01 A3040 RMK AO2 SLP292 T00561017 401000022 $

METARs EXPIRÉS :
  • 250354Z COR 12004KT 10SM BKN095 OVC130 07/M01 A3040 RMK AO2 SLP294 T00671011 $
  • 250254Z 10003KT 10SM BKN100 BKN130 OVC250 06/M01 A3041 RMK AO2 SLP295 T00611011 50002

TAF KPHL
Valide du 25 à 03h jusqu'au 26 à 06h UTC


250251Z 2503/2606 VRB03KT P6SM BKN100
FM251100 16005KT P6SM SCT200
FM251500 21011KT P6SM BKN150
FM252300 18005KT P6SM BKN050
FM260400 19006KT P6SM OVC025
FIR KZDC / Amérique du Nord



MET'MAP, la Météo Aéronautique d'un coup d'oeil ! - Copyright ORBIFLY Décembre 2007 - Disclaimer

ORBIFLY MET'MAP TEAM :

Programmation & Développement : Alexandra Zaïnal
Sur une idée originale de : Baudouin d'Aumeries
Assistance à la programmation : Marc-Olivier Méhu
Soutien technique & logistique : Manuel Goepfert

Contact : metmap@orbifly.com




SOURCES & CREDITS :

   NOAA       Earth
Advisory